Saint Stephen, United Kingdom
Current Conditions -  °F | °C
As of 8:50 AM on Friday 19 Dec 2014 (Local Time) from EGHQ Reporting Station
Broken Clouds Broken Clouds  
Wind Chill: 39°   Ceiling: 2900
Heat Index: 46°   Visibility: 6mi
Dew Point: 39°   Wind: 20mph
Humidity: 76%   Direction: 290°WNW
Pressure: 30.06"   Gusts: NA
Location:  50.33°N, 4.9°W
Report Text: EGHQ 190850Z 29017KT 9999 BKN029 08/04 Q1018
Loading
Personal Weather Stations






























Interactive Weather Map New forecast layout! Learn more

10-Day Weather Forecast

Advertisements
Track Severe Weather on mobile